• Join FlightAware (Why Join?)
  • Login
  • US Flag 
01:18AM EDT


 

Airport Tracker/Info


-or-


 

Live Flight TrackerFlight Track Log ✈ TAM3542 ✈ 29-Sep-2013 ✈ SBBR / BSB - SBEG / MAO

Flight Track Log - Related Links

Times and Time Zones

All times are in EDT time to prevent confusion due to time zone crossing. See the TAM3542 flight status page for this flight to view local times or setup timezone preferences in your user account.

Time Position Orientation Groundspeed Altitude Reporting Facility
EDT Latitude Longitude Course Direction KTS MPH feet Rate Location/Type
08:28PM -15.8630 -47.9190 44° Northeast 130 150  Level FlightAware
08:28PM -15.8610 -47.8960 85° East 169 194 4,200 6,600 Climbing FlightAware
08:29PM -15.8610 -47.8800 90° East 151 174 5,100 1,920 Climbing FlightAware
08:29PM -15.8600 -47.8660 86° East 156 180 5,500 1,320 Climbing FlightAware
08:29PM -15.8570 -47.8550 74° East 159 183 5,900 1,200 Climbing FlightAware
08:29PM -15.8530 -47.8490 55° Northeast 167 192 6,000 960 Climbing FlightAware
08:30PM -15.8400 -47.8360 44° Northeast 187 215 6,400 960 Climbing FlightAware
08:30PM -15.8310 -47.8270 44° Northeast 203 234 6,600 660 Climbing FlightAware
08:31PM -15.8100 -47.8050 45° Northeast 237 273 6,900 600 Climbing FlightAware
08:31PM -15.7950 -47.7890 46° Northeast 263 303 7,100 1,200 Climbing FlightAware
08:31PM -15.7770 -47.7690 47° Northeast 280 322 7,700 2,400 Climbing FlightAware
08:32PM -15.7590 -47.7490 47° Northeast 278 320 8,700 2,520 Climbing FlightAware
08:32PM -15.7390 -47.7290 44° Northeast 286 329 9,400 2,280 Climbing FlightAware
08:32PM -15.7270 -47.7150 48° Northeast 285 328 10,000 2,040 Climbing FlightAware
08:33PM -15.6900 -47.6790 43° Northeast 295 339 11,200 1,980 Climbing FlightAware
08:33PM -15.6740 -47.6720 23° Northeast 292 336 11,700 2,100 Climbing FlightAware
08:33PM -15.6530 -47.6690 North 293 337 12,200 1,920 Climbing FlightAware
08:34PM -15.6110 -47.6690 360° North 301 346 13,200 2,040 Climbing FlightAware
08:34PM -15.5710 -47.6790 346° North 303 349 14,300 1,860 Climbing FlightAware
08:34PM -15.5570 -47.6950 312° West 314 361 14,600 1,440 Climbing FlightAware
08:35PM -15.5510 -47.7100 293° West 325 374 14,900 1,800 Climbing FlightAware
08:35PM -15.5500 -47.7250 274° West 329 379 15,200 2,580 Climbing FlightAware
08:35PM -15.5550 -47.7560 260° West 329 379 16,200 2,040 Climbing FlightAware
08:36PM -15.5710 -47.8080 252° West 335 386 17,100 1,320 Climbing FlightAware
08:36PM -15.5810 -47.8640 259° West 347 399 17,800 720 Climbing FlightAware
08:37PM -15.5900 -47.9230 261° West 347 399 18,000 120 Climbing FlightAware
08:37PM -15.5950 -47.9820 265° West 348 400 18,000 120 Level FlightAware
08:38PM -15.6000 -48.0390 265° West 350 403 18,200 1,620 Climbing FlightAware
08:39PM -15.6060 -48.0960 264° West 325 374 19,900 1,680 Climbing FlightAware
08:39PM -15.6110 -48.1520 265° West 346 398 20,200 840 Climbing FlightAware
08:40PM -15.6150 -48.2110 266° West 355 409 20,900 1,200 Climbing FlightAware
08:40PM -15.6140 -48.2610 271° West 362 417 21,500 1,200 Climbing FlightAware
08:41PM -15.6230 -48.3230 261° West 371 427 22,200 1,500 Climbing FlightAware
08:41PM -15.6350 -48.3840 258° West 362 417 23,300 1,500 Climbing FlightAware
08:42PM -15.6450 -48.4440 260° West 366 421 24,000 1,020 Climbing FlightAware
08:43PM -15.6510 -48.5010 264° West 371 427 24,500 1,020 Climbing FlightAware
08:43PM -15.6570 -48.5690 265° West 378 435 25,200 1,020 Climbing FlightAware
08:44PM -15.6640 -48.6370 264° West 384 442 25,800 1,080 Climbing FlightAware
08:45PM -15.6600 -48.7080 273° West 387 445 26,600 1,080 Climbing FlightAware
08:45PM -15.6510 -48.7270 296° West 388 447 26,800 1,200 Climbing FlightAware
08:45PM -15.6370 -48.7440 311° West 390 449 27,100 900 Climbing FlightAware
08:45PM -15.6210 -48.7580 320° Northwest 398 458 27,100 420 Level FlightAware
08:46PM -15.5750 -48.7910 325° Northwest 410 472 27,400 540 Climbing FlightAware
08:46PM -15.5170 -48.8330 325° Northwest 423 487 27,700 960 Climbing FlightAware
08:47PM -15.4540 -48.8780 325° Northwest 422 486 28,600 1,260 Climbing FlightAware
08:47PM -15.3980 -48.9190 325° Northwest 425 489 29,300 780 Climbing FlightAware
08:48PM -15.3310 -48.9670 325° Northwest 438 504 29,600 720 Climbing FlightAware
08:49PM -15.2720 -49.0090 326° Northwest 440 506 30,200 1,020 Climbing FlightAware
08:49PM -15.2020 -49.0600 325° Northwest 441 507 31,000 1,020 Climbing FlightAware
08:50PM -15.1460 -49.1000 325° Northwest 438 504 31,600 1,020 Climbing FlightAware
08:51PM -15.0870 -49.1430 325° Northwest 440 506 32,200 900 Climbing FlightAware
08:51PM -15.0190 -49.1920 325° Northwest 439 505 32,800 960 Climbing FlightAware
08:52PM -14.9590 -49.2350 325° Northwest 439 505 33,400 780 Climbing FlightAware
08:52PM -14.8950 -49.2810 325° Northwest 441 507 33,800 660 Climbing FlightAware
08:53PM -14.8430 -49.3190 325° Northwest 443 510 34,200 1,200 Climbing FlightAware
08:54PM -14.7830 -49.3620 325° Northwest 434 499 35,100 960 Climbing FlightAware
08:54PM -14.7170 -49.4100 325° Northwest 439 505 35,400 600 Climbing FlightAware
08:55PM -14.6670 -49.4420 328° Northwest 438 504 35,800 540 Climbing FlightAware
08:55PM -14.6210 -49.4570 342° North 445 512 35,900 180 Climbing FlightAware
08:56PM -14.5360 -49.4780 347° North 449 517 36,000 60 Climbing FlightAware
08:56PM -14.4680 -49.4950 346° North 462 532 36,000  Level FlightAware
08:57PM -14.3900 -49.5140 347° North 467 537 36,000  Level FlightAware
08:58PM -14.3300 -49.5290 346° North 469 540 36,000  Level FlightAware
08:58PM -14.2540 -49.5500 345° North 470 541 36,000  Level FlightAware
08:59PM -14.1890 -49.5670 346° North 470 541 36,000  Level FlightAware
09:00PM -14.1030 -49.5890 346° North 470 541 36,000  Level FlightAware
09:00PM -14.0390 -49.6050 346° North 470 541 36,000  Level FlightAware
09:01PM -13.9720 -49.6220 346° North 470 541 36,000  Level FlightAware
09:01PM -13.9080 -49.6390 346° North 470 541 36,000  Level FlightAware
09:02PM -13.8430 -49.6550 347° North 470 541 36,000  Level FlightAware
09:03PM -13.7790 -49.6720 346° North 470 541 36,000  Level FlightAware
09:03PM -13.7120 -49.6890 346° North 470 541 36,000  Level FlightAware
09:04PM -13.6480 -49.7060 346° North 470 541 36,000  Level FlightAware
09:04PM -13.5830 -49.7220 347° North 470 541 36,000  Level FlightAware
09:05PM -13.5170 -49.7390 346° North 470 541 36,000  Level FlightAware
09:06PM -13.4520 -49.7560 346° North 470 541 36,000  Level FlightAware
09:06PM -13.3880 -49.7720 346° North 470 541 36,000  Level FlightAware
09:07PM -13.3230 -49.7890 346° North 470 541 36,000  Level FlightAware
09:07PM -13.2580 -49.8050 347° North 470 541 36,000 -240 Level FlightAware
09:10PM -13.0783 -49.9935 314° West  Level Estimated
09:11PM -12.9913 -50.0846 314° West  Level Estimated
09:12PM -12.9043 -50.1756 314° West  Level Estimated
09:13PM -12.8173 -50.2666 314° West  Level Estimated
09:14PM -12.7302 -50.3575 314° West  Level Estimated
09:15PM -12.6430 -50.4483 314° West  Level Estimated
09:16PM -12.5559 -50.5391 315° West  Level Estimated
09:17PM -12.4687 -50.6298 315° West  Level Estimated
09:18PM -12.3815 -50.7205 315° West  Level Estimated
09:19PM -12.2943 -50.8111 315° West  Level Estimated
09:20PM -12.2070 -50.9016 315° West  Level Estimated
09:21PM -12.1197 -50.9921 315° West  Level Estimated
09:22PM -12.0324 -51.0825 315° West  Level Estimated
09:23PM -11.9450 -51.1729 315° West  Level Estimated
09:24PM -11.8576 -51.2632 315° West  Level Estimated
09:25PM -11.7702 -51.3534 315° West  Level Estimated
09:26PM -11.6827 -51.4436 315° West  Level Estimated
09:27PM -11.5953 -51.5337 315° West  Level Estimated
09:28PM -11.5078 -51.6238 315° West  Level Estimated
09:29PM -11.4202 -51.7138 315° West  Level Estimated
09:30PM -11.3327 -51.8038 315° West  Level Estimated
09:31PM -11.2451 -51.8937 315° West  Level Estimated
09:32PM -11.1575 -51.9836 315° West  Level Estimated
09:33PM -11.0699 -52.0733 315° West  Level Estimated
09:34PM -10.9822 -52.1631 315° West  Level Estimated
09:35PM -10.8945 -52.2528 315° West  Level Estimated
09:36PM -10.8068 -52.3424 315° West  Level Estimated
09:37PM -10.7191 -52.4320 315° West  Level Estimated
09:38PM -10.6313 -52.5215 315° West  Level Estimated
09:39PM -10.5435 -52.6110 315° West  Level Estimated
09:40PM -10.4557 -52.7005 315° West  Level Estimated
09:41PM -10.3679 -52.7898 315° West  Level Estimated
09:42PM -10.2800 -52.8792 315° West  Level Estimated
09:43PM -10.1921 -52.9684 315° West  Level Estimated
09:44PM -10.1042 -53.0577 315° West  Level Estimated
09:45PM -10.0162 -53.1469 315° West  Level Estimated
09:46PM -9.9283 -53.2360 315° West  Level Estimated
09:47PM -9.8403 -53.3251 315° West  Level Estimated
09:48PM -9.7523 -53.4141 315° West  Level Estimated
09:49PM -9.6643 -53.5031 315° West  Level Estimated
09:50PM -9.5762 -53.5921 315° West  Level Estimated
09:51PM -9.4881 -53.6810 315° West  Level Estimated
09:52PM -9.4000 -53.7698 315° West  Level Estimated
09:53PM -9.3119 -53.8586 315° West  Level Estimated
09:54PM -9.2238 -53.9474 315° West  Level Estimated
09:55PM -9.1356 -54.0361 315° West  Level Estimated
09:56PM -9.0474 -54.1248 315° West  Level Estimated
09:57PM -8.9592 -54.2134 315° West  Level Estimated
09:58PM -8.8709 -54.3020 315° West  Level Estimated
09:59PM -8.7827 -54.3905 315° West  Level Estimated
10:00PM -8.6944 -54.4790 315° West  Level Estimated
10:01PM -8.6061 -54.5675 315° West  Level Estimated
10:02PM -8.5178 -54.6559 315° West  Level Estimated
10:03PM -8.4295 -54.7443 315° West  Level Estimated
10:04PM -8.3412 -54.8326 315° West  Level Estimated
10:05PM -8.2528 -54.9210 315° West  Level Estimated
10:06PM -8.1644 -55.0092 315° West  Level Estimated
10:07PM -8.0760 -55.0974 315° West  Level Estimated
10:08PM -7.9875 -55.1856 315° West  Level Estimated
10:09PM -7.8991 -55.2738 315° West  Level Estimated
10:10PM -7.8106 -55.3619 315° West  Level Estimated
10:11PM -7.7221 -55.4499 315° West  Level Estimated
10:12PM -7.6336 -55.5380 315° West  Level Estimated
10:13PM -7.5451 -55.6260 315° West  Level Estimated
10:14PM -7.4566 -55.7139 315° West  Level Estimated
10:15PM -7.3680 -55.8019 315° West  Level Estimated
10:16PM -7.2795 -55.8898 315° West  Level Estimated
10:17PM -7.1909 -55.9776 315° West  Level Estimated
10:18PM -7.1023 -56.0654 315° West  Level Estimated
10:19PM -7.0136 -56.1532 315° West  Level Estimated
10:20PM -6.9250 -56.2410 315° West  Level Estimated
10:21PM -6.8364 -56.3287 316° Northwest  Level Estimated
10:22PM -6.7477 -56.4164 316° Northwest  Level Estimated
10:23PM -6.6590 -56.5040 316° Northwest  Level Estimated
10:24PM -6.5703 -56.5917 316° Northwest  Level Estimated
10:25PM -6.4816 -56.6792 316° Northwest  Level Estimated
10:26PM -6.3928 -56.7668 316° Northwest  Level Estimated
10:27PM -6.3041 -56.8543 316° Northwest  Level Estimated
10:28PM -6.2153 -56.9418 316° Northwest  Level Estimated
10:29PM -6.1266 -57.0293 316° Northwest  Level Estimated
10:30PM -6.0378 -57.1167 316° Northwest  Level Estimated
10:31PM -5.9490 -57.2042 316° Northwest  Level Estimated
10:32PM -5.8601 -57.2916 316° Northwest  Level Estimated
10:33PM -5.7713 -57.3789 316° Northwest  Level Estimated
10:34PM -5.6825 -57.4663 316° Northwest  Level Estimated
10:35PM -5.5936 -57.5536 316° Northwest  Level Estimated
10:36PM -5.5047 -57.6408 316° Northwest  Level Estimated
10:37PM -5.4159 -57.7281 316° Northwest  Level Estimated
10:38PM -5.3270 -57.8153 316° Northwest  Level Estimated
10:39PM -5.2381 -57.9025 316° Northwest  Level Estimated
10:40PM -5.1491 -57.9897 316° Northwest  Level Estimated
10:41PM -5.0602 -58.0769 316° Northwest  Level Estimated
10:42PM -4.9713 -58.1640 316° Northwest  Level Estimated
10:43PM -4.8823 -58.2511 316° Northwest  Level Estimated
10:44PM -4.7934 -58.3382 316° Northwest  Level Estimated
10:45PM -4.7044 -58.4252 316° Northwest  Level Estimated
10:46PM -4.6154 -58.5123 316° Northwest  Level Estimated
10:47PM -4.5264 -58.5993 316° Northwest  Level Estimated
10:48PM -4.4374 -58.6863 316° Northwest  Level Estimated
10:49PM -4.3484 -58.7732 316° Northwest  Level Estimated
10:50PM -4.2593 -58.8602 316° Northwest  Level Estimated
10:51PM -4.1703 -58.9471 316° Northwest  Level Estimated
10:52PM -4.0812 -59.0340 316° Northwest  Level Estimated
10:53PM -3.9922 -59.1209 316° Northwest  Level Estimated
10:54PM -3.9031 -59.2078 316° Northwest  Level Estimated
10:55PM -3.8140 -59.2947 316° Northwest  Level Estimated
10:56PM -3.7250 -59.3815 316° Northwest  Level Estimated
10:56PM -3.3630 -59.5840 316° Northwest 370 426 11,600  Level FlightAware
10:56PM -3.3390 -59.6360 295° West 361 415 10,800 -1,140 Descending FlightAware
10:57PM -3.3160 -59.6830 296° West 335 386 10,400 -780 Descending FlightAware
10:57PM -3.2980 -59.7240 294° West 318 366 10,000 -1,080 Descending FlightAware
10:58PM -3.2850 -59.7510 296° West 314 361 9,500 -1,500 Descending FlightAware
10:58PM -3.2730 -59.7770 295° West 312 359 9,000 -1,620 Descending FlightAware
10:58PM -3.2580 -59.8100 294° West 310 357 8,300 -1,620 Descending FlightAware
10:59PM -3.2450 -59.8370 296° West 306 352 7,800 -1,440 Descending FlightAware
10:59PM -3.2350 -59.8600 294° West 303 349 7,400 -1,380 Descending FlightAware
10:59PM -3.2220 -59.8880 295° West 298 343 6,900 -1,380 Descending FlightAware
11:00PM -3.2090 -59.9150 296° West 297 342 6,400 -1,380 Descending FlightAware
11:00PM -3.1960 -59.9420 296° West 293 337 5,900 -1,320 Descending FlightAware
11:01PM -3.1850 -59.9660 295° West 289 333 5,500 -1,380 Descending FlightAware
11:01PM -3.1740 -59.9910 294° West 287 330 5,000 -1,500 Descending FlightAware
11:01PM -3.1650 -60.0090 297° West 287 330 4,600 -1,500 Descending FlightAware
11:01PM -3.1540 -60.0350 293° West 285 328 4,100 -1,380 Descending FlightAware
11:02PM -3.1430 -60.0580 296° West 280 322 3,700 -1,380 Descending FlightAware
11:02PM -3.1320 -60.0810 296° West 276 318 3,200 -1,500 Descending FlightAware
11:03PM -3.1210 -60.1040 296° West 275 316 2,700 -1,200 Descending FlightAware
11:03PM -3.1080 -60.1330 294° West 266 306 2,300 -720 Descending FlightAware
11:03PM -3.0980 -60.1550 294° West 252 290 2,200 -420 Descending FlightAware
11:03PM -3.0910 -60.1680 298° West 244 281 2,100 -300 Descending FlightAware
11:04PM -3.0850 -60.1740 315° West 237 273 2,100  Level FlightAware
11:04PM -3.0770 -60.1780 333° Northwest 226 260 2,100  Level FlightAware
11:04PM -3.0690 -60.1790 353° North 216 249 2,100  Level FlightAware
11:04PM -3.0500 -60.1770 North 203 234 2,100  Level FlightAware
11:04PM -3.0480 -60.1760 27° Northeast 197 227 2,100  Level FlightAware
11:04PM -3.0420 -60.1720 34° Northeast 176 203 2,100  Level FlightAware
11:05PM -3.0400 -60.1660 72° East 168 193 2,100  Level FlightAware
11:05PM -3.0390 -60.1600 81° East 158 182 2,100 -660 Level FlightAware
11:05PM -3.0380 -60.1460 86° East 154 177 1,800 -780 Descending FlightAware
11:06PM -3.0380 -60.1230 90° East 146 168 1,400 -660 Descending FlightAware
11:06PM -3.0390 -60.1070 94° East 146 168 1,200 -720 Descending FlightAware
11:06PM -3.0390 -60.0980 90° East 146 168 1,000 -780 Descending FlightAware
11:07PM -3.0390 -60.0800 90° East 148 170 700 -480 Descending FlightAware
11:07PM -3.0390 -60.0630 90° East 148 170 600 -240 Descending FlightAware